Barona (240, 974, 635) Station Data

Red Flag Warning: No
Fire Weather Zone: 250
SDGE Region: Eastern
Lat/Lon: 32.935/-116.877

Observations

Time Wind Speed/Gust Temp(F) RH Fuel Moist Fuel Temp(F) Dewpt(F) Tmax(F) Tmin(F) Accum Precip 10-min Precip SL Press(mb)
2/27 11:40pm 207 3 G 6 51° 92% - - 48° 53.2° 46.2° - - -
2/27 11:20pm 208 3 G 5 51° 91% - - 48° 53.2° 46.2° - - -
2/27 11:10pm 196 3 G 6 51° 91% - - 48° 53.2° 46.2° - - -
2/27 11:00pm 219 3 G 7 51° 91% - - 48° 53.2° 46.2° - - -
2/27 10:50pm 234 3 G 8 51° 91% - - 49° 53.2° 46.2° - - -
2/27 10:40pm 253 7 G 15 52° 91% - - 49° 53.2° 46.2° - - -
2/27 10:30pm 218 10 G 20 52° 91% - - 49° 53.2° 46.2° - - -
2/27 10:20pm 204 10 G 23 52° 91% - - 49° 53.2° 46.2° - - -
2/27 10:10pm 213 10 G 23 52° 91% - - 49° 53.2° 46.2° - - -
2/27 10:00pm 203 12 G 23 52° 91% - - 49° 53.2° 46.2° - - -
2/27 9:50pm 207 11 G 19 52° 91% - - 49° 53.2° 46.2° - - -
2/27 9:40pm 207 12 G 18 52° 90% - - 49° 53.2° 46.2° - - -
2/27 9:30pm 201 13 G 26 52° 90% - - 49° 53.2° 46.2° - - -
2/27 9:20pm 203 12 G 21 52° 91% - - 49° 53.2° 46.2° - - -
2/27 9:10pm 199 12 G 26 52° 91% - - 49° 53.2° 46.2° - - -
2/27 9:00pm 196 11 G 15 52° 91% - - 49° 53.2° 46.2° - - -
2/27 8:50pm 201 11 G 20 52° 91% - - 49° 53.2° 46.2° - - -
2/27 8:40pm 196 11 G 22 52° 91% - - 49° 53.2° 46.2° - - -
2/27 8:30pm 201 12 G 21 52° 91% - - 49° 53.2° 46.2° - - -
2/27 8:20pm 201 12 G 21 52° 91% - - 49° 53.2° 46.2° - - -
2/27 8:10pm 202 11 G 17 51° 91% - - 49° 53.2° 46.2° - - -
2/27 8:00pm 200 8 G 18 51° 91% - - 49° 53.2° 46.2° - - -
2/27 7:50pm 205 7 G 12 51° 91% - - 49° 53.2° 46.2° - - -
2/27 7:40pm 220 7 G 14 51° 91% - - 49° 53.2° 46.2° - - -
2/27 7:30pm 205 5 G 9 51° 91% - - 49° 53.2° 46.2° - - -
2/27 7:20pm 218 6 G 13 51° 91% - - 49° 53.2° 46.2° - - -
2/27 7:10pm 209 7 G 11 51° 91% - - 49° 53.2° 46.2° - - -
2/27 7:00pm 204 7 G 12 51° 91% - - 49° 53.2° 46.2° - - -
2/27 6:50pm 208 7 G 13 51° 91% - - 49° 53.2° 46.2° - - -
2/27 6:40pm 204 8 G 12 52° 91% - - 49° 53.2° 46.2° - - -
2/27 6:30pm 201 8 G 13 52° 91% - - 49° 53.2° 46.2° - - -
2/27 6:20pm 207 8 G 14 52° 90% - - 49° 53.2° 46.2° - - -
2/27 6:10pm 196 10 G 15 52° 90% - - 49° 53.2° 46.2° - - -
2/27 6:00pm 202 8 G 15 52° 90% - - 49° 53.2° 46.2° - - -
2/27 5:50pm 199 8 G 14 52° 90% - - 49° 53.2° 46.2° - - -
2/27 5:40pm 197 11 G 21 52° 90% - - 49° 53.2° 46.2° - - -
2/27 5:30pm 203 11 G 19 52° 90% - - 49° 53.2° 46.2° - - -
2/27 5:20pm 196 11 G 21 52° 91% - - 50° 53.2° 46.2° - - -
2/27 5:10pm 201 10 G 18 52° 91% - - 50° 53.2° 46.2° - - -
2/27 5:00pm 207 11 G 16 52° 91% - - 50° 53.2° 46.2° - - -
2/27 4:50pm 203 11 G 22 52° 91% - - 50° 53.2° 46.2° - - -
2/27 4:40pm 203 11 G 20 52° 90% - - 50° 53.2° 46.2° - - -
2/27 4:30pm 199 9 G 15 53° 90% - - 50° 53.2° 46.2° - - -
2/27 4:20pm 199 12 G 20 53° 90% - - 50° 53.2° 46.2° - - -
2/27 4:10pm 204 12 G 23 53° 90% - - 50° 53.2° 46.2° - - -
2/27 4:00pm 204 11 G 25 53° 90% - - 50° 53.2° 46.2° - - -
2/27 3:50pm 198 9 G 17 53° 90% - - 50° 53.2° 46.2° - - -
2/27 3:40pm 199 10 G 19 53° 90% - - 50° 53.2° 46.2° - - -
2/27 3:30pm 190 9 G 18 53° 91% - - 50° 53.2° 46.2° - - -
2/27 3:20pm 198 11 G 21 53° 91% - - 50° 53.2° 46.2° - - -
2/27 3:10pm 196 13 G 26 53° 91% - - 50° 53.2° 46.2° - - -
2/27 3:00pm 198 15 G 23 52° 91% - - 50° 53.2° 46.2° - - -
2/27 2:50pm 199 12 G 26 52° 91% - - 50° 53.2° 46.2° - - -
2/27 2:40pm 199 14 G 23 52° 91% - - 50° 53.2° 46.2° - - -
2/27 2:30pm 196 14 G 22 52° 91% - - 49° 53.2° 46.2° - - -
2/27 2:20pm 197 15 G 26 52° 91% - - 49° 53.2° 46.2° - - -
2/27 2:10pm 201 15 G 29 52° 91% - - 50° 53.2° 46.2° - - -
2/27 2:00pm 202 14 G 24 52° 91% - - 50° 53.2° 46.2° - - -
2/27 1:50pm 197 15 G 28 52° 91% - - 50° 53.2° 46.2° - - -
2/27 1:40pm 202 14 G 23 52° 91% - - 50° 53.2° 46.2° - - -
2/27 1:30pm 199 13 G 21 52° 91% - - 50° 53.2° 46.2° - - -
2/27 1:20pm 195 18 G 28 52° 91% - - 50° 53.2° 46.2° - - -
2/27 1:10pm 195 17 G 29 52° 91% - - 50° 53.2° 46.2° - - -
2/27 1:00pm 200 16 G 26 52° 91% - - 49° 53.2° 46.2° - - -
2/27 12:50pm 201 15 G 27 52° 91% - - 49° 53.2° 46.2° - - -
2/27 12:40pm 200 15 G 28 52° 91% - - 50° 53.2° 46.2° - - -
2/27 12:30pm 198 17 G 32 52° 91% - - 50° 53.2° 46.2° - - -
2/27 12:20pm 202 14 G 29 52° 91% - - 50° 53.2° 46.2° - - -
2/27 12:10pm 201 12 G 22 52° 91% - - 50° 53.2° 46.2° - - -
2/27 12:00pm 192 11 G 17 52° 91% - - 49° 53.2° 46.2° - - -
2/27 11:50am 198 12 G 20 52° 91% - - 49° 53.2° 46.2° - - -
2/27 11:40am 202 10 G 16 52° 91% - - 49° 53.2° 46.2° - - -
2/27 11:30am 198 12 G 20 52° 91% - - 49° 53.2° 46.2° - - -
2/27 11:20am 199 14 G 22 52° 91% - - 49° 53.2° 46.2° - - -
2/27 11:10am 206 10 G 18 52° 91% - - 50° 53.2° 46.2° - - -
2/27 11:00am 212 9 G 20 52° 91% - - 50° 53.2° 46.2° - - -
2/27 10:50am 210 9 G 19 52° 91% - - 50° 53.2° 46.2° - - -
2/27 10:40am 216 11 G 22 52° 91% - - 50° 53.2° 46.2° - - -
2/27 10:30am 217 10 G 20 53° 91% - - 50° 53.2° 46.2° - - -
2/27 10:20am 198 11 G 20 53° 91% - - 50° 53.2° 46.2° - - -
2/27 10:10am 204 10 G 18 53° 91% - - 50° 53.1° 46.2° - - -
2/27 10:00am 205 11 G 24 53° 91% - - 50° 53.1° 46.2° - - -
2/27 9:50am 201 11 G 23 53° 91% - - 50° 53.1° 46.2° - - -
2/27 9:40am 206 11 G 20 53° 91% - - 50° 53.1° 46.2° - - -
2/27 9:30am 203 12 G 21 53° 91% - - 50° 53.1° 46.2° - - -
2/27 9:20am 202 10 G 18 53° 91% - - 50° 53.1° 46.2° - - -
2/27 9:10am 199 10 G 17 53° 92% - - 50° 53.1° 46.2° - - -
2/27 9:00am 205 9 G 16 53° 92% - - 50° 53.1° 46.2° - - -
2/27 8:50am 208 9 G 20 53° 92% - - 50° 53.1° 46.2° - - -
2/27 8:40am 199 8 G 12 53° 91% - - 50° 53.1° 46.2° - - -
2/27 8:30am 202 9 G 15 53° 91% - - 50° 53.1° 46.2° - - -
2/27 8:20am 200 11 G 18 53° 91% - - 50° 53.1° 46.2° - - -
2/27 8:10am 200 10 G 17 53° 91% - - 50° 53.1° 46.2° - - -
2/27 8:00am 198 11 G 20 53° 91% - - 50° 53.1° 46.2° - - -
2/27 7:50am 202 11 G 18 53° 91% - - 50° 53.1° 46.2° - - -
2/27 7:40am 199 10 G 19 53° 92% - - 50° 53.1° 46.2° - - -
2/27 7:30am 198 9 G 16 53° 92% - - 50° 53.1° 46.2° - - -
2/27 7:20am 205 10 G 19 53° 92% - - 50° 53.1° 46.2° - - -
2/27 7:10am 207 11 G 18 53° 92% - - 50° 53.1° 46.2° - - -
2/27 7:00am 194 10 G 18 53° 92% - - 51° 53.1° 46.2° - - -
2/27 6:50am 202 13 G 22 53° 92% - - 51° 53.1° 46.2° - - -
2/27 6:40am 195 12 G 25 53° 92% - - 50° 53.1° 46.2° - - -
2/27 6:30am 195 10 G 18 53° 92% - - 50° 53° 46.2° - - -
2/27 6:20am 198 10 G 19 53° 91% - - 50° 52.9° 46.2° - - -
2/27 6:10am 198 11 G 20 53° 92% - - 50° 52.9° 46.2° - - -
2/27 6:00am 192 10 G 20 53° 92% - - 50° 52.8° 46.2° - - -
2/27 5:50am 197 7 G 10 52° 92% - - 50° 52.5° 46.2° - - -
2/27 5:40am 198 7 G 15 52° 92% - - 50° 52.5° 46.2° - - -
2/27 5:30am 203 6 G 10 52° 92% - - 50° 52.2° 46.2° - - -
2/27 5:20am 205 7 G 11 52° 92% - - 50° 52.1° 46.2° - - -
2/27 5:10am 205 6 G 11 52° 92% - - 49° 52° 46.2° - - -
2/27 5:00am 200 7 G 14 51° 92% - - 49° 51.7° 46.2° - - -
2/27 4:50am 206 7 G 14 51° 92% - - 49° 51.5° 46.2° - - -
2/27 4:40am 185 5 G 8 51° 92% - - 49° 51.2° 46.2° - - -
2/27 4:30am 190 5 G 12 51° 92% - - 48° 51.1° 46.2° - - -
2/27 4:20am 189 4 G 10 49° 92% - - 47° 50.3° 46.2° - - -
2/27 4:10am 240 1 G 4 48° 92% - - 46° 48.5° 46.2° - - -
2/27 4:00am 85 1 G 2 48° 92% - - 46° 48.1° 46.2° - - -
2/27 3:50am 32 2 G 4 48° 92% - - 46° 48.1° 46.2° - - -
2/27 3:40am 41 3 G 4 48° 92% - - 46° 48° 46.2° - - -
2/27 3:30am 53 3 G 4 48° 92% - - 45° 47.8° 46.2° - - -
2/27 3:20am 76 2 G 3 47° 92% - - 45° 47.8° 46.2° - - -
2/27 3:10am 183 1 G 4 47° 92% - - 45° 47.8° 46.2° - - -
2/27 3:00am 197 3 G 4 47° 92% - - 45° 47.8° 46.2° - - -
2/27 2:50am 52 1 G 4 48° 92% - - 45° 47.8° 46.2° - - -
2/27 2:40am 38 2 G 3 47° 92% - - 45° 47.6° 46.2° - - -
2/27 2:30am 71 3 G 4 47° 92% - - 45° 47.6° 46.2° - - -
2/27 2:20am 63 2 G 4 47° 91% - - 45° 47.6° 46.2° - - -
2/27 2:10am 49 2 G 3 47° 92% - - 45° 47.6° 46.2° - - -
2/27 2:00am 16 3 G 4 47° 92% - - 45° 47.2° 46.2° - - -
2/27 1:50am 9 3 G 4 47° 91% - - 44° 47.2° 46.2° - - -
2/27 1:40am 13 2 G 3 47° 91% - - 44° 47.2° 46.2° - - -
2/27 1:30am 69 2 G 3 47° 91% - - 44° 47.2° 46.2° - - -
2/27 1:20am 90 2 G 3 47° 91% - - 44° 47.2° 46.2° - - -
2/27 1:10am 77 2 G 4 47° 91% - - 44° 47.2° 46.2° - - -
2/27 1:00am 15 3 G 5 47° 91% - - 44° 47.2° 46.2° - - -
2/27 12:50am 17 3 G 4 47° 91% - - 44° 47.2° 46.2° - - -
2/27 12:40am 21 1 G 3 47° 91% - - 44° 47.1° 46.2° - - -
2/27 12:30am 43 2 G 3 47° 90% - - 44° 46.9° 46.2° - - -
2/27 12:20am 68 1 G 2 47° 90% - - 44° 46.8° 46.2° - - -
2/27 12:10am 55 1 G 2 46° 90% - - 44° 46.6° 46.2° - - -
2/27 12:00am 7 2 G 3 46° 90% - - 43° 53.2° 44.6° - - -
2/26 11:50pm 13 3 G 4 46° 90% - - 43° 53.2° 44.6° - - -
2/26 11:40pm 358 2 G 4 46° 89% - - 43° 53.2° 44.6° - - -
2/26 11:30pm 85 1 G 3 46° 88% - - 43° 53.2° 44.6° - - -
2/26 11:20pm 256 0 G 2 46° 87% - - 42° 53.2° 44.6° - - -
2/26 11:10pm 202 1 G 3 46° 87% - - 42° 53.2° 44.6° - - -
2/26 11:00pm 142 0 G 1 46° 87% - - 42° 53.2° 44.6° - - -
2/26 10:50pm 79 1 G 3 46° 87% - - 42° 53.2° 44.6° - - -
2/26 10:40pm 149 1 G 2 46° 87% - - 42° 53.2° 44.6° - - -
2/26 10:30pm 304 1 G 2 45° 87% - - 42° 53.2° 44.6° - - -
2/26 10:20pm 308 1 G 2 45° 86% - - 41° 53.2° 44.6° - - -
2/26 10:10pm 127 1 G 2 45° 85% - - 41° 53.2° 44.6° - - -
2/26 10:00pm 148 1 G 3 45° 84% - - 41° 53.2° 44.9° - - -
2/26 9:50pm 336 1 G 2 46° 84% - - 41° 53.2° 45° - - -
2/26 9:40pm 35 2 G 3 46° 84% - - 41° 53.2° 45° - - -
2/26 9:30pm 343 2 G 3 46° 83% - - 41° 53.2° 45° - - -
2/26 9:20pm 132 0 G 1 47° 82% - - 42° 53.2° 45° - - -
2/26 9:10pm 230 1 G 3 47° 82% - - 42° 53.2° 45° - - -
2/26 9:00pm 231 1 G 2 47° 81% - - 42° 53.2° 45° - - -
2/26 8:50pm 209 3 G 4 48° 81% - - 42° 53.2° 45° - - -
2/26 8:40pm 195 2 G 3 48° 81% - - 42° 53.2° 45° - - -
2/26 8:30pm 194 3 G 6 48° 80% - - 42° 53.2° 45° - - -
2/26 8:20pm 229 5 G 9 48° 79% - - 42° 53.2° 45° - - -
2/26 8:10pm 241 5 G 8 48° 80% - - 42° 53.2° 45° - - -
2/26 8:00pm 246 5 G 9 48° 81% - - 43° 53.2° 45° - - -
2/26 7:50pm 215 6 G 12 48° 82% - - 43° 53.2° 45° - - -
2/26 7:40pm 185 4 G 6 48° 82% - - 43° 53.2° 45° - - -
2/26 7:30pm 191 4 G 7 48° 82% - - 42° 53.2° 45° - - -
2/26 7:20pm 183 4 G 7 48° 81% - - 43° 53.2° 45° - - -
2/26 7:10pm 187 4 G 8 48° 80% - - 43° 53.2° 45° - - -
2/26 7:00pm 197 5 G 9 49° 80% - - 43° 53.2° 45° - - -
2/26 6:50pm 205 5 G 9 49° 79% - - 43° 53.2° 45° - - -
2/26 6:40pm 202 6 G 10 49° 79% - - 43° 53.2° 45° - - -
2/26 6:30pm 196 5 G 7 49° 77% - - 42° 53.2° 45° - - -
2/26 6:20pm 212 4 G 7 49° 75% - - 42° 53.2° 45° - - -
2/26 6:10pm 205 5 G 8 49° 74% - - 41° 53.2° 45° - - -
2/26 6:00pm 208 6 G 10 50° 74% - - 42° 53.2° 45° - - -
2/26 5:50pm 229 5 G 8 50° 72% - - 41° 53.2° 45° - - -
2/26 5:40pm 227 4 G 10 50° 71% - - 41° 53.2° 45° - - -
2/26 5:30pm 240 8 G 14 51° 69% - - 41° 53.2° 45° - - -
2/26 5:20pm 247 9 G 16 51° 67% - - 40° 53.2° 45° - - -
2/26 5:10pm 249 10 G 17 51° 68% - - 41° 53.2° 45° - - -
2/26 5:00pm 233 6 G 14 51° 69% - - 42° 53.2° 45° - - -